Time;durP1;ratioP1;P1;durP2;ratioP2;P2;SDS_P1;SDS_P2;PMS_P1;PMS_P2;Temp;Humidity;BMP_temperature;BMP_pressure;BME280_temperature;BME280_humidity;BME280_pressure;Samples;Min_cycle;Max_cycle;Signal;HPM_P1;HPM_P2
2020/12/07 00:00:18;;;;;;;31.83;20.30;;;;;;;7.06;68.82;100013.16;5023080;28;20022;-86
2020/12/07 00:02:45;;;;;;;35.45;21.00;;;;;;;7.10;68.51;100009.59;5021288;28;20033;-85
2020/12/07 00:05:11;;;;;;;39.47;21.25;;;;;;;7.07;68.89;100004.34;5022776;28;20029;-86
2020/12/07 00:07:38;;;;;;;33.15;19.35;;;;;;;7.10;68.19;99987.63;5021141;28;20333;-88
2020/12/07 00:10:05;;;;;;;32.85;20.13;;;;;;;7.11;68.63;99984.09;5004752;28;20045;-85
2020/12/07 00:12:33;;;;;;;34.38;19.08;;;;;;;7.06;68.70;99980.69;5022233;28;20037;-86
2020/12/07 00:14:59;;;;;;;35.33;21.10;;;;;;;7.09;68.48;99984.13;5020744;28;20021;-84
2020/12/07 00:17:27;;;;;;;34.75;21.42;;;;;;;7.12;68.28;99981.41;5021291;28;20030;-85
2020/12/07 00:19:54;;;;;;;33.05;19.63;;;;;;;7.18;68.28;99984.81;5021031;28;20030;-86
2020/12/07 00:22:23;;;;;;;38.40;21.27;;;;;;;7.12;68.28;99973.50;5020857;28;20472;-86
2020/12/07 00:24:50;;;;;;;36.00;21.17;;;;;;;7.11;68.27;99963.88;5021431;28;20029;-85
2020/12/07 00:27:26;;;;;;;36.08;20.90;;;;;;;7.07;68.07;99964.84;5004758;28;20053;-85
2020/12/07 00:29:55;;;;;;;41.50;23.15;;;;;;;7.05;68.68;99950.84;5020143;28;20092;-89
2020/12/07 00:32:23;;;;;;;37.55;20.48;;;;;;;6.92;69.12;99944.94;5024891;28;20041;-86
2020/12/07 00:34:50;;;;;;;36.45;20.65;;;;;;;7.07;68.54;99930.59;5007810;28;20060;-85
2020/12/07 00:37:18;;;;;;;35.83;20.77;;;;;;;6.97;68.74;99929.91;5024942;28;20045;-84
2020/12/07 00:39:44;;;;;;;33.17;19.05;;;;;;;6.96;68.52;99924.69;5022836;28;20037;-84
2020/12/07 00:42:11;;;;;;;29.40;18.50;;;;;;;6.82;69.09;99916.19;5026162;28;20053;-85
2020/12/07 00:44:39;;;;;;;32.13;18.83;;;;;;;6.96;68.72;99908.88;5025681;28;20034;-83
2020/12/07 00:47:07;;;;;;;28.40;17.13;;;;;;;6.99;68.62;99900.94;5008699;28;20120;-83
2020/12/07 00:49:35;;;;;;;26.33;16.95;;;;;;;6.99;68.54;99911.47;5024724;28;20036;-85
2020/12/07 00:52:01;;;;;;;26.63;17.10;;;;;;;7.01;68.63;99919.34;5027036;28;20018;-85
2020/12/07 00:54:28;;;;;;;31.55;18.42;;;;;;;7.09;67.99;99920.03;5020823;28;20117;-88
2020/12/07 00:56:56;;;;;;;29.40;18.08;;;;;;;7.06;68.41;99913.06;5016347;28;20038;-88
2020/12/07 00:59:24;;;;;;;27.02;15.90;;;;;;;7.07;68.65;99914.78;5030058;28;20034;-87
2020/12/07 01:01:52;;;;;;;28.67;17.05;;;;;;;7.17;68.07;99902.31;5030363;28;20026;-86
2020/12/07 01:04:19;;;;;;;28.83;17.73;;;;;;;7.20;68.07;99904.00;5029260;28;20044;-87
2020/12/07 01:06:47;;;;;;;30.98;18.13;;;;;;;7.22;67.91;99896.94;5028042;28;20116;-86
2020/12/07 01:09:17;;;;;;;32.58;18.30;;;;;;;7.27;68.06;99895.06;5027452;28;20034;-85
2020/12/07 01:11:45;;;;;;;33.60;19.48;;;;;;;7.26;68.17;99899.50;5026362;28;20025;-85
2020/12/07 01:14:14;;;;;;;28.42;18.15;;;;;;;7.30;68.05;99905.53;5026458;28;20137;-84
2020/12/07 01:16:41;;;;;;;30.05;18.55;;;;;;;7.30;68.01;99889.72;5023509;28;20037;-84
2020/12/07 01:19:09;;;;;;;29.95;18.15;;;;;;;7.31;68.16;99902.00;5029940;28;20037;-88
2020/12/07 01:21:36;;;;;;;33.70;18.95;;;;;;;7.29;68.20;99903.81;5034506;28;20175;-84
2020/12/07 01:24:03;;;;;;;33.67;18.60;;;;;;;7.32;68.68;99903.75;5035348;28;20056;-84
2020/12/07 01:26:30;;;;;;;34.20;18.95;;;;;;;7.27;68.93;99910.88;5035592;28;20095;-83
2020/12/07 01:28:57;;;;;;;31.40;18.70;;;;;;;7.33;68.64;99916.03;5035565;28;20079;-84
2020/12/07 01:31:24;;;;;;;28.70;17.65;;;;;;;7.36;68.71;99913.31;5035718;28;20507;-85
2020/12/07 01:33:51;;;;;;;34.13;18.23;;;;;;;7.33;68.44;99915.13;5036135;28;20056;-84
2020/12/07 01:36:17;;;;;;;35.08;19.75;;;;;;;7.44;68.79;99908.75;5035516;28;20036;-85
2020/12/07 01:38:44;;;;;;;32.33;18.50;;;;;;;7.49;68.66;99911.28;5035889;28;20068;-84
2020/12/07 01:41:13;;;;;;;28.23;17.58;;;;;;;7.54;68.10;99908.53;5035734;28;20396;-84
2020/12/07 01:43:40;;;;;;;30.52;18.10;;;;;;;7.41;68.67;99903.56;5034617;28;20041;-84
2020/12/07 01:46:07;;;;;;;28.52;17.05;;;;;;;7.47;68.44;99905.16;5035837;28;20025;-84
2020/12/07 01:48:36;;;;;;;31.90;17.58;;;;;;;7.53;68.44;99899.75;5036227;28;20353;-83
2020/12/07 01:51:03;;;;;;;34.10;18.77;;;;;;;7.52;68.38;99897.16;5035682;28;20043;-84
2020/12/07 01:53:31;;;;;;;32.20;18.30;;;;;;;7.55;68.01;99895.34;5035591;28;20032;-84
2020/12/07 01:55:58;;;;;;;32.15;18.23;;;;;;;7.53;67.80;99896.28;5036041;28;20025;-84
2020/12/07 01:58:24;;;;;;;32.13;19.90;;;;;;;7.48;68.04;99892.84;5035070;28;20121;-84
2020/12/07 02:00:51;;;;;;;36.25;20.85;;;;;;;7.52;67.90;99900.66;5035322;28;20116;-84
2020/12/07 02:03:17;;;;;;;34.78;18.17;;;;;;;7.48;68.29;99887.56;5035310;28;20548;-84
2020/12/07 02:05:43;;;;;;;35.17;18.88;;;;;;;7.42;68.39;99885.97;5035531;28;20033;-85
2020/12/07 02:10:53;;;;;;;34.92;21.60;;;;;;;7.25;68.56;99881.94;5090803;27;20462;-88
2020/12/07 02:13:20;;;;;;;32.28;18.85;;;;;;;7.23;68.47;99878.47;5071079;28;20127;-87
2020/12/07 02:15:46;;;;;;;37.75;21.20;;;;;;;7.22;68.59;99881.13;5070686;28;20411;-88
2020/12/07 02:18:14;;;;;;;34.25;19.83;;;;;;;7.20;69.00;99864.50;5060703;28;20029;-87
2020/12/07 02:20:47;;;;;;;36.80;20.45;;;;;;;7.18;68.98;99874.19;5031911;28;20112;-88
2020/12/07 02:23:14;;;;;;;;;;;;;;;7.32;68.71;99868.63;5043756;28;20035;-88
2020/12/07 02:25:41;;;;;;;38.10;19.50;;;;;;;7.16;69.00;99866.31;5032491;28;19924;-88
2020/12/07 02:28:08;;;;;;;40.85;20.83;;;;;;;7.11;69.55;99857.66;5034647;28;20120;-88
2020/12/07 02:30:34;;;;;;;40.08;21.25;;;;;;;7.14;68.85;99854.97;5050887;28;20029;-88
2020/12/07 02:33:01;;;;;;;35.22;19.52;;;;;;;7.17;69.56;99851.41;5049379;28;20037;-89
2020/12/07 02:35:27;;;;;;;33.15;19.65;;;;;;;7.17;69.42;99849.63;5050193;28;20416;-89
2020/12/07 02:37:54;;;;;;;36.13;20.77;;;;;;;7.19;69.81;99849.56;5032317;28;20042;-88
2020/12/07 02:40:20;;;;;;;38.08;21.13;;;;;;;7.20;69.53;99835.50;5043549;28;20044;-88
2020/12/07 02:42:47;;;;;;;48.83;24.02;;;;;;;7.17;69.52;99836.44;5034765;28;20366;-89
2020/12/07 02:45:16;;;;;;;44.78;24.13;;;;;;;7.19;69.92;99833.75;5037439;28;20404;-88
2020/12/07 02:47:43;;;;;;;39.05;20.58;;;;;;;7.18;69.96;99829.41;5050192;28;20030;-90
2020/12/07 02:50:12;;;;;;;44.88;22.00;;;;;;;7.10;71.06;99827.81;5048717;28;20048;-90
2020/12/07 02:52:39;;;;;;;47.88;24.92;;;;;;;7.09;71.43;99827.84;5050114;28;20484;-88
2020/12/07 02:55:08;;;;;;;50.53;22.30;;;;;;;7.15;71.23;99826.84;5042855;28;20029;-89
2020/12/07 02:57:34;;;;;;;48.95;24.75;;;;;;;7.17;71.17;99825.91;5050163;28;20040;-88
2020/12/07 03:00:01;;;;;;;44.30;23.45;;;;;;;7.18;71.92;99824.13;5049573;28;20032;-89
2020/12/07 03:02:28;;;;;;;45.78;23.65;;;;;;;7.28;71.83;99826.53;5047951;28;20175;-89
2020/12/07 03:04:54;;;;;;;47.30;22.70;;;;;;;7.32;71.64;99819.41;5050188;28;20036;-88
2020/12/07 03:07:20;;;;;;;43.42;23.42;;;;;;;7.33;72.61;99809.72;5028674;28;20092;-87
2020/12/07 03:09:48;;;;;;;47.92;23.70;;;;;;;7.37;72.17;99812.28;5028435;28;20049;-85
2020/12/07 03:12:17;;;;;;;48.67;23.85;;;;;;;7.38;72.56;99807.88;5046951;28;20122;-85
2020/12/07 03:14:43;;;;;;;49.50;23.13;;;;;;;7.41;72.41;99819.22;5049691;28;20164;-86
2020/12/07 03:17:10;;;;;;;42.92;23.30;;;;;;;7.41;72.56;99820.97;5050016;28;20079;-84
2020/12/07 03:19:36;;;;;;;41.50;21.45;;;;;;;7.52;72.21;99818.09;5049653;28;20375;-85
2020/12/07 03:22:03;;;;;;;51.22;22.23;;;;;;;7.56;72.43;99817.09;5034525;28;20030;-84
2020/12/07 03:24:29;;;;;;;44.13;21.63;;;;;;;7.58;72.02;99808.25;5031649;28;20037;-85
2020/12/07 03:26:56;;;;;;;48.72;23.05;;;;;;;7.56;72.44;99803.94;5021278;28;20048;-85
2020/12/07 03:29:22;;;;;;;45.17;22.60;;;;;;;7.52;72.32;99795.22;5033485;28;20036;-88
2020/12/07 03:31:49;;;;;;;48.28;21.33;;;;;;;7.59;72.62;99795.97;5017177;28;20095;-88
2020/12/07 03:34:15;;;;;;;40.05;21.67;;;;;;;7.60;72.44;99792.41;5027419;28;20021;-88
2020/12/07 03:36:42;;;;;;;42.88;20.02;;;;;;;7.60;72.70;99798.56;5035893;28;20060;-87
2020/12/07 03:39:09;;;;;;;40.50;19.05;;;;;;;7.65;71.88;99790.53;5036100;28;20036;-88
2020/12/07 03:41:35;;;;;;;47.90;22.42;;;;;;;7.69;71.83;99780.75;5036035;28;20037;-87
2020/12/07 03:44:02;;;;;;;37.35;18.13;;;;;;;7.63;72.54;99779.16;5035598;28;20033;-88
2020/12/07 03:46:28;;;;;;;39.22;18.38;;;;;;;7.66;72.03;99780.84;5034322;28;20033;-89
2020/12/07 03:48:55;;;;;;;38.22;19.70;;;;;;;7.62;72.26;99785.31;5031776;28;20034;-88
2020/12/07 03:51:21;;;;;;;29.50;16.10;;;;;;;7.67;71.91;99777.31;5016452;28;20052;-89
2020/12/07 03:53:48;;;;;;;29.60;15.90;;;;;;;7.65;72.53;99771.19;5017189;28;20084;-85
2020/12/07 03:56:14;;;;;;;29.65;15.90;;;;;;;7.65;72.32;99763.28;5035710;28;20040;-84
2020/12/07 03:58:41;;;;;;;29.55;15.45;;;;;;;7.69;72.46;99764.94;5035512;28;20036;-84
2020/12/07 04:01:09;;;;;;;25.02;14.50;;;;;;;7.67;72.00;99762.34;5026721;28;20034;-84
2020/12/07 04:03:38;;;;;;;25.83;14.07;;;;;;;7.70;72.12;99756.13;5017595;28;20033;-84
2020/12/07 04:06:11;;;;;;;27.30;13.75;;;;;;;7.68;72.01;99761.44;5035097;28;20029;-84
2020/12/07 04:08:38;;;;;;;21.73;12.70;;;;;;;7.64;72.78;99767.72;5035377;28;20033;-84
2020/12/07 04:11:04;;;;;;;21.27;12.25;;;;;;;7.66;72.35;99765.03;5026842;28;20508;-85
2020/12/07 04:13:32;;;;;;;26.33;13.38;;;;;;;7.58;72.64;99773.13;5015627;28;20121;-83
2020/12/07 04:15:59;;;;;;;20.08;11.70;;;;;;;7.61;72.47;99765.13;5015358;28;20034;-84
2020/12/07 04:18:25;;;;;;;21.52;12.82;;;;;;;7.59;72.70;99770.44;5015646;28;20041;-84
2020/12/07 04:20:51;;;;;;;22.42;12.95;;;;;;;7.63;73.08;99770.38;5027024;28;20029;-84
2020/12/07 04:23:18;;;;;;;25.90;13.75;;;;;;;7.53;73.06;99769.75;5015275;28;20105;-84
2020/12/07 04:25:44;;;;;;;24.35;14.30;;;;;;;7.63;73.00;99771.25;5020668;28;20040;-84
2020/12/07 04:28:11;;;;;;;30.88;16.15;;;;;;;7.67;73.23;99778.16;5023846;28;20389;-84
2020/12/07 04:30:40;;;;;;;29.00;15.15;;;;;;;7.60;73.38;99773.94;5032183;28;20029;-84
2020/12/07 04:33:06;;;;;;;29.17;16.17;;;;;;;7.68;73.05;99784.31;5024809;28;20033;-84
2020/12/07 04:35:33;;;;;;;28.77;15.50;;;;;;;7.67;73.50;99772.03;5029554;28;20136;-84
2020/12/07 04:37:59;;;;;;;29.30;15.48;;;;;;;7.61;73.82;99778.31;5048896;28;20033;-84
2020/12/07 04:40:27;;;;;;;28.20;15.43;;;;;;;7.69;73.48;99770.22;5054974;28;20029;-83
2020/12/07 04:42:54;;;;;;;29.60;15.20;;;;;;;7.59;73.85;99777.50;5033601;28;20038;-83
2020/12/07 04:45:22;;;;;;;27.83;15.45;;;;;;;7.63;73.45;99780.91;5014947;28;20026;-84
2020/12/07 04:47:53;;;;;;;26.42;15.40;;;;;;;7.58;74.09;99773.13;5015244;28;20030;-83
2020/12/07 04:50:21;;;;;;;32.67;17.00;;;;;;;7.67;73.38;99778.16;5019194;28;20038;-83
2020/12/07 04:52:49;;;;;;;27.10;14.60;;;;;;;7.71;73.60;99781.59;5014778;28;20359;-83
2020/12/07 04:55:17;;;;;;;28.40;14.18;;;;;;;7.66;73.31;99786.13;5020765;28;20025;-82
2020/12/07 04:57:44;;;;;;;25.85;14.00;;;;;;;7.67;73.32;99777.31;5014439;28;20030;-83
2020/12/07 05:00:10;;;;;;;21.88;12.82;;;;;;;7.73;72.96;99766.59;5015635;28;20029;-83
2020/12/07 05:02:37;;;;;;;25.40;12.65;;;;;;;7.70;73.04;99757.00;5015464;28;20122;-84
2020/12/07 05:05:06;;;;;;;25.60;11.85;;;;;;;7.73;73.47;99751.66;5028004;28;20476;-83
2020/12/07 05:07:34;;;;;;;18.92;10.27;;;;;;;7.71;72.89;99753.47;5034136;28;20100;-83
2020/12/07 05:10:10;;;;;;;16.67;9.43;;;;;;;7.56;73.70;99738.91;5020693;28;20044;-83
2020/12/07 05:12:41;;;;;;;16.20;8.50;;;;;;;7.60;73.71;99739.66;5017666;28;20477;-85
2020/12/07 05:15:11;;;;;;;12.90;7.85;;;;;;;7.56;73.51;99746.81;5020117;28;20105;-84
2020/12/07 05:17:38;;;;;;;11.55;6.65;;;;;;;7.58;73.72;99746.78;5014056;28;20102;-83
2020/12/07 05:20:06;;;;;;;9.80;5.45;;;;;;;7.53;72.92;99736.34;5029064;28;20032;-85
2020/12/07 05:22:34;;;;;;;8.55;5.20;;;;;;;7.58;73.65;99734.44;5014027;28;20116;-86
2020/12/07 05:25:04;;;;;;;9.80;5.63;;;;;;;7.59;73.10;99732.69;5014325;28;20034;-84
2020/12/07 05:27:32;;;;;;;7.78;4.22;;;;;;;7.61;72.80;99733.50;5013903;28;20121;-84
2020/12/07 05:32:43;;;;;;;8.10;3.88;;;;;;;7.51;73.48;99734.66;5050509;28;20449;-84
2020/12/07 05:35:10;;;;;;;6.38;4.55;;;;;;;7.48;73.52;99745.25;5012911;28;20037;-84
2020/12/07 05:37:38;;;;;;;9.68;5.28;;;;;;;7.40;74.24;99742.81;5026764;28;20046;-84
2020/12/07 05:40:07;;;;;;;7.00;4.60;;;;;;;7.40;74.01;99748.09;5011193;28;20515;-82
2020/12/07 05:42:34;;;;;;;9.65;5.10;;;;;;;7.47;73.66;99752.31;5008678;28;20034;-83
2020/12/07 05:45:01;;;;;;;10.55;6.55;;;;;;;7.40;74.05;99735.78;5010881;28;20474;-84
2020/12/07 05:47:30;;;;;;;16.35;9.63;;;;;;;7.50;73.60;99732.91;5010395;28;20434;-84
2020/12/07 05:49:56;;;;;;;15.45;9.25;;;;;;;7.52;73.82;99746.94;5010432;28;20477;-85
2020/12/07 05:55:17;;;;;;;21.10;12.43;;;;;;;7.58;73.42;99741.50;5111577;27;20374;-85
2020/12/07 05:58:05;;;;;;;26.90;15.13;;;;;;;7.64;73.95;99717.63;5111242;28;20070;-85
2020/12/07 06:00:38;;;;;;;30.65;15.20;;;;;;;7.65;73.72;99719.34;5106745;28;20021;-83
2020/12/07 06:03:06;;;;;;;30.20;16.35;;;;;;;7.64;73.72;99716.75;5090255;28;20044;-84
2020/12/07 06:05:35;;;;;;;24.65;14.82;;;;;;;7.70;73.24;99712.19;5090110;28;20078;-83
2020/12/07 06:08:30;;;;;;;27.17;15.93;;;;;;;7.81;72.86;99711.03;5089724;28;20036;-83
2020/12/07 06:11:02;;;;;;;24.13;15.02;;;;;;;7.69;73.87;99712.19;5092406;28;20788;-84
2020/12/07 06:13:30;;;;;;;23.70;13.38;;;;;;;7.65;74.12;99700.91;5087988;28;20037;-84
2020/12/07 06:15:57;;;;;;;26.27;13.07;;;;;;;7.69;73.84;99693.75;5088755;28;20032;-84
2020/12/07 06:18:33;;;;;;;20.27;12.70;;;;;;;7.72;73.60;99688.41;5087514;28;20020;-84
2020/12/07 06:21:22;;;;;;;25.25;13.48;;;;;;;7.77;73.42;99690.00;5088096;28;20036;-83
2020/12/07 06:23:49;;;;;;;22.23;12.13;;;;;;;7.76;73.44;99690.94;5079389;28;20506;-84
2020/12/07 06:26:18;;;;;;;22.48;11.23;;;;;;;7.80;73.01;99711.94;5087110;28;20036;-82
2020/12/07 06:28:47;;;;;;;24.92;11.93;;;;;;;7.78;73.60;99711.97;5090119;28;20523;-87
2020/12/07 06:31:18;;;;;;;24.15;11.38;;;;;;;7.71;73.65;99713.94;5092710;28;20012;-84
2020/12/07 06:39:10;;;;;;;22.27;10.57;;;;;;;7.76;73.03;99724.31;5110754;27;20374;-83
2020/12/07 06:41:47;;;;;;;22.00;10.45;;;;;;;7.82;73.07;99728.59;5094265;28;20055;-83
2020/12/07 06:44:19;;;;;;;24.33;11.18;;;;;;;7.78;72.93;99736.56;5093744;28;20428;-84
2020/12/07 06:49:37;;;;;;;20.52;11.00;;;;;;;7.81;73.32;99753.22;4970526;27;2896219;-84
2020/12/07 06:52:16;;;;;;;22.63;12.02;;;;;;;7.81;73.07;99748.78;5043964;28;20076;-87
2020/12/07 06:55:16;;;;;;;20.23;11.45;;;;;;;7.76;72.99;99746.31;5058031;28;20388;-83
2020/12/07 06:57:38;;;;;;;15.48;10.13;;;;;;;7.76;73.17;99750.69;5051325;28;20034;-84
2020/12/07 07:02:54;;;;;;;22.20;12.13;;;;;;;7.72;72.78;99759.59;5111255;27;20912;-85
2020/12/07 07:05:24;;;;;;;23.60;11.90;;;;;;;7.71;73.36;99757.88;5097107;28;20028;-86
2020/12/07 07:07:54;;;;;;;20.30;11.40;;;;;;;7.67;72.90;99757.06;5095978;28;20142;-83
2020/12/07 07:10:21;;;;;;;22.58;12.13;;;;;;;7.64;73.13;99759.81;5093043;28;20044;-82
2020/12/07 07:12:50;;;;;;;27.17;13.35;;;;;;;7.65;73.22;99756.28;5091907;28;20031;-85
2020/12/07 07:15:17;;;;;;;20.70;13.13;;;;;;;7.63;73.36;99760.69;5090664;28;20032;-84
2020/12/07 07:17:45;;;;;;;28.50;15.82;;;;;;;7.62;73.18;99766.88;5097016;28;20472;-83
2020/12/07 07:20:13;;;;;;;39.97;18.67;;;;;;;7.53;73.27;99765.34;5096831;28;20134;-83
2020/12/07 07:22:42;;;;;;;34.42;17.95;;;;;;;7.56;73.24;99764.38;5098846;28;20032;-85
2020/12/07 07:25:23;;;;;;;40.58;19.85;;;;;;;7.37;73.80;99759.56;5100176;28;20074;-83
2020/12/07 07:30:40;;;;;;;93.90;49.08;;;;;;;7.44;74.50;99763.78;5086599;28;20422;-83
2020/12/07 07:33:06;;;;;;;51.78;26.13;;;;;;;7.46;73.85;99755.84;5070312;28;20044;-83
2020/12/07 07:35:33;;;;;;;42.35;20.83;;;;;;;7.51;73.60;99755.72;5069374;28;20379;-83
2020/12/07 07:38:00;;;;;;;39.28;17.70;;;;;;;7.53;73.96;99759.22;5061101;28;20052;-83
2020/12/07 07:40:30;;;;;;;44.60;18.98;;;;;;;7.63;73.67;99750.16;5058211;28;20485;-83
2020/12/07 07:43:01;;;;;;;32.15;17.80;;;;;;;7.48;74.60;99761.06;5055449;28;20033;-83
2020/12/07 07:45:32;;;;;;;32.75;16.80;;;;;;;7.55;73.85;99758.25;5059059;28;20036;-83
2020/12/07 07:54:24;;;;;;;29.00;14.95;;;;;;;7.64;73.60;99754.53;5078289;28;20041;-83
2020/12/07 08:11:30;;;;;;;27.63;15.77;;;;;;;7.73;73.93;99756.91;5046823;28;20033;-83
2020/12/07 08:16:25;;;;;;;27.65;15.45;;;;;;;7.86;73.68;99761.88;5110174;27;20378;-84
2020/12/07 08:18:56;;;;;;;92.97;47.42;;;;;;;7.73;73.80;99762.19;5097452;28;20032;-83
2020/12/07 08:21:28;;;;;;;32.08;17.55;;;;;;;7.72;73.92;99757.81;5089508;28;20027;-84
2020/12/07 08:23:58;;;;;;;26.00;15.25;;;;;;;7.80;73.93;99767.31;5087157;28;20550;-84
2020/12/07 08:26:24;;;;;;;27.92;14.80;;;;;;;7.84;73.96;99771.59;5089960;28;20144;-85
2020/12/07 08:28:53;;;;;;;28.25;13.88;;;;;;;7.80;73.95;99777.84;5089775;28;20028;-84
2020/12/07 08:31:21;;;;;;;29.52;14.40;;;;;;;7.82;73.50;99776.06;5090143;28;20043;-89
2020/12/07 08:36:47;;;;;;;26.08;14.82;;;;;;;7.80;73.59;99798.94;5063377;28;20993;-85
2020/12/07 08:39:13;;;;;;;25.65;14.18;;;;;;;7.85;73.57;99791.78;5032629;28;20037;-84
2020/12/07 08:41:40;;;;;;;30.73;16.00;;;;;;;7.75;73.90;99797.31;5030955;28;20076;-83
2020/12/07 08:44:08;;;;;;;26.90;14.30;;;;;;;7.70;74.49;99793.91;5029877;28;20061;-84
2020/12/07 08:46:36;;;;;;;32.65;16.48;;;;;;;7.70;74.27;99799.19;5029814;28;20029;-84
2020/12/07 08:49:04;;;;;;;33.38;16.98;;;;;;;7.68;74.62;99795.72;5029938;28;20033;-84
2020/12/07 08:51:32;;;;;;;29.88;16.00;;;;;;;7.72;74.21;99799.16;5030492;28;20036;-84
2020/12/07 08:53:59;;;;;;;31.48;16.23;;;;;;;7.85;73.46;99794.41;5029940;28;20040;-84
2020/12/07 08:56:25;;;;;;;35.13;16.20;;;;;;;7.81;73.61;99806.81;5029921;28;20038;-84
2020/12/07 08:58:52;;;;;;;29.60;14.40;;;;;;;7.88;73.90;99805.75;5030242;28;20037;-84
2020/12/07 09:01:18;;;;;;;27.52;14.48;;;;;;;7.85;73.56;99811.13;5029685;28;20034;-84
2020/12/07 09:03:46;;;;;;;41.58;16.52;;;;;;;7.85;74.25;99802.34;5028884;28;20026;-84
2020/12/07 09:06:13;;;;;;;24.30;13.50;;;;;;;7.90;73.95;99806.59;5029004;28;20049;-83
2020/12/07 09:08:42;;;;;;;125.55;64.15;;;;;;;7.96;73.48;99795.00;5030098;28;20030;-84
2020/12/07 09:11:10;;;;;;;36.60;18.25;;;;;;;8.02;73.41;99797.47;5028777;28;20511;-84
2020/12/07 09:13:38;;;;;;;35.70;16.63;;;;;;;7.96;74.09;99805.56;5026882;28;20535;-85
2020/12/07 09:16:06;;;;;;;26.63;14.55;;;;;;;8.05;73.74;99804.44;5027689;28;20103;-84
2020/12/07 09:18:32;;;;;;;21.50;12.38;;;;;;;7.98;73.31;99798.47;5059061;22;20472;-83
2020/12/07 09:20:58;;;;;;;21.45;11.32;;;;;;;8.03;73.71;99807.13;5069289;28;20545;-83
2020/12/07 09:23:25;;;;;;;23.88;12.65;;;;;;;8.04;73.48;99800.09;5067747;28;20404;-82
2020/12/07 09:25:52;;;;;;;22.85;13.32;;;;;;;7.88;74.01;99812.81;5068415;28;20029;-82
2020/12/07 09:28:19;;;;;;;20.85;12.95;;;;;;;7.80;73.91;99820.03;5066263;28;20045;-83
2020/12/07 09:30:45;;;;;;;26.52;13.82;;;;;;;7.94;73.64;99824.06;5069283;28;20021;-83
2020/12/07 09:33:11;;;;;;;28.50;15.40;;;;;;;7.81;73.90;99824.41;5063078;28;20061;-83
2020/12/07 09:35:39;;;;;;;26.63;14.80;;;;;;;7.68;74.64;99826.50;5059904;28;20467;-82
2020/12/07 09:38:05;;;;;;;24.25;14.43;;;;;;;7.81;73.96;99814.72;5056328;28;20037;-84
2020/12/07 09:40:31;;;;;;;27.92;16.23;;;;;;;7.70;73.95;99817.66;5051388;28;20021;-83
2020/12/07 09:42:57;;;;;;;30.25;16.88;;;;;;;7.56;74.41;99814.47;5046158;28;20029;-82
2020/12/07 09:45:24;;;;;;;33.70;19.23;;;;;;;7.65;74.21;99816.91;5057281;28;20043;-85
2020/12/07 09:47:50;;;;;;;41.47;23.45;;;;;;;7.69;74.11;99817.66;5057167;28;20103;-83
2020/12/07 09:50:17;;;;;;;44.00;25.05;;;;;;;7.58;74.09;99826.72;5055790;28;20082;-83
2020/12/07 09:52:43;;;;;;;48.38;27.25;;;;;;;7.59;73.96;99824.97;5042414;28;20132;-83
2020/12/07 09:55:09;;;;;;;47.55;28.35;;;;;;;7.53;74.60;99827.75;5031560;28;20036;-83
2020/12/07 09:57:35;;;;;;;45.03;27.98;;;;;;;7.55;73.98;99826.81;5052740;28;20064;-83
2020/12/07 10:00:02;;;;;;;53.60;30.30;;;;;;;7.64;73.23;99819.56;5055840;28;20033;-83
2020/12/07 10:02:29;;;;;;;59.20;32.72;;;;;;;7.63;73.59;99823.97;5055945;28;20037;-83
2020/12/07 10:04:55;;;;;;;56.47;32.67;;;;;;;7.57;73.81;99824.97;5055427;28;20498;-83
2020/12/07 10:07:21;;;;;;;55.60;34.30;;;;;;;7.60;73.64;99826.66;5038001;28;20022;-83
2020/12/07 10:09:47;;;;;;;58.95;34.10;;;;;;;7.54;73.97;99827.69;5033807;28;20041;-84
2020/12/07 10:12:13;;;;;;;89.93;48.13;;;;;;;7.61;73.84;99821.38;5016054;28;20068;-83
2020/12/07 10:14:40;;;;;;;61.13;35.92;;;;;;;7.70;73.67;99815.00;5033725;28;20524;-82
2020/12/07 10:17:06;;;;;;;59.50;35.25;;;;;;;7.72;73.55;99813.19;5032707;28;20055;-83
2020/12/07 10:19:32;;;;;;;57.38;34.63;;;;;;;7.64;73.65;99809.88;5031715;28;20026;-82
2020/12/07 10:22:02;;;;;;;58.55;35.45;;;;;;;7.69;73.51;99818.56;5020399;28;20528;-83
2020/12/07 10:24:28;;;;;;;63.97;35.25;;;;;;;7.63;73.58;99809.91;5021774;28;20025;-86
2020/12/07 10:26:54;;;;;;;58.13;32.40;;;;;;;7.52;73.69;99820.72;5035299;28;20477;-83
2020/12/07 10:29:21;;;;;;;63.42;35.15;;;;;;;7.61;73.38;99825.78;5035349;28;20041;-83
2020/12/07 10:31:47;;;;;;;61.70;34.58;;;;;;;7.46;73.49;99821.72;5035355;28;20025;-83
2020/12/07 10:34:13;;;;;;;60.15;34.25;;;;;;;7.40;74.22;99829.78;5035275;28;20039;-83
2020/12/07 10:36:39;;;;;;;63.53;34.50;;;;;;;7.38;74.25;99827.19;5033391;28;20080;-88
2020/12/07 10:39:07;;;;;;;64.07;36.35;;;;;;;7.53;73.48;99827.75;5028933;28;20125;-84
2020/12/07 10:41:33;;;;;;;61.63;34.55;;;;;;;7.35;73.93;99823.75;5031588;28;20066;-82
2020/12/07 10:44:00;;;;;;;66.45;35.15;;;;;;;7.34;74.03;99836.06;5037758;28;20100;-82
2020/12/07 10:46:26;;;;;;;69.65;37.90;;;;;;;7.40;73.64;99835.94;5038753;28;20054;-83
2020/12/07 10:48:52;;;;;;;61.10;34.65;;;;;;;7.38;74.26;99836.88;5045058;28;20033;-82
2020/12/07 10:51:18;;;;;;;65.90;35.58;;;;;;;7.39;73.98;99834.19;5042757;28;20030;-82
2020/12/07 10:53:46;;;;;;;66.82;36.70;;;;;;;7.29;74.21;99816.88;5038769;28;20033;-83
2020/12/07 10:56:14;;;;;;;71.43;37.88;;;;;;;7.37;74.36;99828.09;5040967;28;20083;-82
2020/12/07 10:58:43;;;;;;;66.20;35.85;;;;;;;7.28;74.63;99828.31;5040540;28;20021;-82
2020/12/07 11:01:10;;;;;;;73.10;39.38;;;;;;;7.47;74.17;99830.53;5032662;28;20101;-82
2020/12/07 11:03:36;;;;;;;73.30;38.70;;;;;;;7.48;73.70;99832.22;5037465;28;20034;-82
2020/12/07 11:06:25;;;;;;;70.45;37.72;;;;;;;7.34;74.11;99841.34;5034291;28;20029;-82
2020/12/07 11:08:54;;;;;;;62.50;37.15;;;;;;;7.36;74.31;99821.06;5022689;28;20042;-83
2020/12/07 11:11:21;;;;;;;107.63;57.05;;;;;;;7.33;74.30;99821.16;5018528;28;20476;-83
2020/12/07 11:13:48;;;;;;;82.85;42.78;;;;;;;7.44;73.70;99813.88;5028011;28;20026;-83
2020/12/07 11:16:15;;;;;;;75.70;38.92;;;;;;;7.55;73.56;99815.38;5045464;28;20037;-82
2020/12/07 11:18:43;;;;;;;78.50;40.00;;;;;;;7.49;73.80;99832.22;5046325;28;20033;-83
2020/12/07 11:21:15;;;;;;;73.55;38.78;;;;;;;7.52;73.59;99826.00;5033091;28;20036;-81
2020/12/07 11:23:43;;;;;;;70.72;36.15;;;;;;;7.55;73.54;99831.19;5040169;28;20048;-83
2020/12/07 11:26:11;;;;;;;68.53;35.55;;;;;;;7.47;74.04;99833.16;5040504;28;20033;-82
2020/12/07 11:28:39;;;;;;;70.72;38.22;;;;;;;7.55;73.46;99825.91;5042055;28;20136;-82
2020/12/07 11:31:10;;;;;;;66.50;35.95;;;;;;;7.69;73.30;99828.22;5041541;28;20026;-81
2020/12/07 11:33:36;;;;;;;82.43;38.45;;;;;;;7.55;73.53;99828.56;5041306;28;20120;-84
2020/12/07 11:36:03;;;;;;;72.57;37.25;;;;;;;7.65;73.60;99822.19;5035924;28;20064;-83
2020/12/07 11:38:35;;;;;;;72.85;37.25;;;;;;;7.65;73.67;99821.28;5038899;28;20036;-84
2020/12/07 11:46:32;;;;;;;73.05;36.33;;;;;;;7.78;73.22;99823.59;5082516;28;20438;-83
2020/12/07 11:48:59;;;;;;;59.08;32.90;;;;;;;7.86;72.79;99818.13;5057465;28;20502;-84
2020/12/07 11:51:26;;;;;;;59.05;32.40;;;;;;;7.88;73.46;99820.72;5050682;28;20087;-82
2020/12/07 11:53:54;;;;;;;58.63;32.78;;;;;;;7.70;73.63;99820.28;5049339;28;20472;-83
2020/12/07 11:56:30;;;;;;;66.50;34.17;;;;;;;7.57;73.40;99816.22;5050399;28;20033;-83
2020/12/07 11:58:56;;;;;;;67.57;34.67;;;;;;;7.69;72.86;99815.91;5050375;28;20040;-83
2020/12/07 12:01:22;;;;;;;63.78;35.03;;;;;;;7.80;72.59;99817.41;5050641;28;20040;-82
2020/12/07 12:03:49;;;;;;;64.88;35.17;;;;;;;7.67;72.98;99820.34;5050351;28;20033;-82
2020/12/07 12:06:24;;;;;;;72.85;36.30;;;;;;;7.58;73.27;99816.16;5046817;28;20079;-82
2020/12/07 12:08:52;;;;;;;66.45;35.72;;;;;;;7.64;73.20;99820.44;5050062;28;20021;-82
2020/12/07 12:11:19;;;;;;;68.47;37.63;;;;;;;7.49;73.33;99813.75;5050149;28;20468;-82
2020/12/07 12:13:46;;;;;;;71.97;37.53;;;;;;;7.43;73.86;99821.81;5050444;28;20025;-83
2020/12/07 12:16:13;;;;;;;67.25;36.63;;;;;;;7.26;74.13;99824.84;5038371;28;20044;-83
2020/12/07 12:18:40;;;;;;;71.20;36.08;;;;;;;7.34;74.05;99822.91;5037153;28;20025;-81
2020/12/07 12:21:06;;;;;;;67.43;36.28;;;;;;;7.39;73.51;99821.03;5049760;28;20029;-83
2020/12/07 12:23:32;;;;;;;63.90;35.75;;;;;;;7.32;73.77;99819.41;5050247;28;20040;-82